createdAt,value
2022-10-20T04:59:40.125Z,99810.38
2022-10-20T07:22:21.658Z,99822.31
2022-10-20T07:24:48.549Z,99823.28
2022-10-20T07:27:15.123Z,99819.13
2022-10-20T07:29:41.764Z,99822.06
2022-10-20T07:32:08.265Z,99818.06
2022-10-20T07:34:34.848Z,99815.84
2022-10-20T07:37:01.481Z,99817.63
2022-10-20T07:39:28.183Z,99819.56
2022-10-20T07:41:55.029Z,99820.66
2022-10-20T07:44:22.010Z,99817.84
2022-10-20T07:46:48.747Z,99808.94
2022-10-20T07:52:01.868Z,99816.81
2022-10-20T07:54:28.427Z,99812.25
2022-10-20T07:56:55.005Z,99808.72
2022-10-20T07:59:21.485Z,99812.47
2022-10-20T08:01:48.306Z,99810.75
2022-10-20T08:04:15.068Z,99801.69
2022-10-20T08:06:41.678Z,99799.63
2022-10-20T08:09:08.497Z,99789.56
2022-10-20T08:11:35.912Z,99793.97
2022-10-20T08:14:02.728Z,99789.38
2022-10-20T08:16:32.021Z,99777.44
2022-10-20T08:19:02.781Z,99773.97
2022-10-20T08:21:29.311Z,99776.16
2022-10-20T08:23:56.029Z,99781.28
2022-10-20T08:26:25.183Z,99771.66
2022-10-20T08:28:53.719Z,99760.97
2022-10-20T08:31:20.785Z,99767.09
2022-10-20T08:33:52.118Z,99761.88
2022-10-20T08:36:19.425Z,99758.19
2022-10-20T08:38:45.960Z,99753.38
2022-10-20T08:41:25.059Z,99750.44
2022-10-20T08:43:54.918Z,99750.53
2022-10-20T08:46:29.591Z,99761.59
2022-10-20T08:48:56.766Z,99747.94
2022-10-20T08:51:31.389Z,99737.78
2022-10-20T08:54:00.059Z,99733.59
2022-10-20T08:56:30.332Z,99734.97
2022-10-20T08:58:57.540Z,99729.56
2022-10-20T09:01:30.938Z,99722.53
2022-10-20T09:04:02.750Z,99723.03
2022-10-20T09:06:29.756Z,99711.19
2022-10-20T09:08:57.538Z,99696.25
2022-10-20T09:11:30.192Z,99697.00
2022-10-20T09:13:56.922Z,99705.94
2022-10-20T09:16:40.829Z,99711.88
2022-10-20T09:19:23.391Z,99711.78
2022-10-20T09:21:53.649Z,99720.22
2022-10-20T09:24:27.518Z,99717.97
2022-10-20T09:27:01.454Z,99713.28
2022-10-20T09:29:36.783Z,99711.72
2022-10-20T09:32:27.301Z,99713.16
2022-10-20T09:34:49.936Z,99703.13
2022-10-20T09:37:19.653Z,99712.91
2022-10-20T09:39:46.181Z,99710.69
2022-10-20T09:42:18.776Z,99699.16
2022-10-20T09:44:53.489Z,99705.78
2022-10-20T09:47:22.940Z,99701.72
2022-10-20T09:50:00.861Z,99701.72
2022-10-20T09:52:34.284Z,99704.97
2022-10-20T09:55:20.197Z,99700.38
2022-10-20T09:57:48.483Z,99703.44
2022-10-20T10:00:36.818Z,99699.19
2022-10-20T10:03:23.112Z,99692.09
2022-10-20T10:05:55.580Z,99697.34
2022-10-20T10:08:24.323Z,99694.31
2022-10-20T10:11:15.182Z,99696.69
2022-10-20T10:13:44.727Z,99695.66
2022-10-20T10:16:16.623Z,99689.50
2022-10-20T10:18:48.471Z,99679.94
2022-10-20T10:21:17.608Z,99675.44
2022-10-20T10:23:57.350Z,99686.97
2022-10-20T10:26:47.477Z,99686.59
2022-10-20T10:29:19.981Z,99679.13
2022-10-20T10:31:51.803Z,99667.25
2022-10-20T10:34:18.253Z,99663.28
2022-10-20T10:36:44.949Z,99669.28
2022-10-20T10:39:14.424Z,99665.31
2022-10-20T10:42:12.043Z,99659.56
2022-10-20T10:44:57.262Z,99647.94
2022-10-20T10:48:07.101Z,99649.56
2022-10-20T10:50:36.600Z,99654.13
2022-10-20T10:53:09.987Z,99654.28
2022-10-20T10:56:13.617Z,99652.72
2022-10-20T10:58:57.566Z,99639.22
2022-10-20T11:01:47.283Z,99629.91
2022-10-20T11:04:46.291Z,99623.97
2022-10-20T11:07:45.830Z,99619.44
2022-10-20T11:10:43.732Z,99623.19
2022-10-20T11:13:28.452Z,99623.91
2022-10-20T11:16:04.174Z,99605.78
2022-10-20T11:18:59.195Z,99613.75
2022-10-20T11:21:52.235Z,99609.78
2022-10-20T11:24:40.045Z,99594.72
2022-10-20T11:27:29.388Z,99606.00
2022-10-20T11:30:08.182Z,99594.41
2022-10-20T11:32:47.505Z,99583.53
2022-10-20T11:35:59.470Z,99591.09
2022-10-20T11:38:41.526Z,99594.72
2022-10-20T11:41:17.483Z,99587.41
2022-10-20T11:44:07.639Z,99580.47
2022-10-20T11:46:41.077Z,99579.56
2022-10-20T11:49:12.127Z,99573.25
2022-10-20T11:52:04.534Z,99573.53
2022-10-20T11:54:45.078Z,99577.63
2022-10-20T11:57:14.534Z,99580.19
2022-10-20T11:59:50.147Z,99554.63
2022-10-20T12:03:02.497Z,99577.63
2022-10-20T12:05:50.877Z,99574.06
2022-10-20T12:08:44.958Z,99560.13
2022-10-20T12:11:35.678Z,99554.41
2022-10-20T12:14:19.330Z,99560.69
2022-10-20T12:16:51.902Z,99569.47
2022-10-20T12:19:24.534Z,99561.53
2022-10-20T12:22:26.320Z,99563.97
2022-10-20T12:24:52.770Z,99556.88
2022-10-20T12:27:24.768Z,99555.56
2022-10-20T12:29:56.474Z,99554.59
2022-10-20T12:32:29.155Z,99548.09
2022-10-20T12:35:22.111Z,99547.88
2022-10-20T12:38:02.269Z,99538.25
2022-10-20T12:40:40.603Z,99534.91
2022-10-20T12:43:24.193Z,99525.72
2022-10-20T12:45:51.280Z,99516.25
2022-10-20T12:48:24.382Z,99519.94
2022-10-20T12:50:52.507Z,99510.00
2022-10-20T12:53:25.147Z,99500.47
2022-10-20T12:56:01.156Z,99501.06
2022-10-20T12:58:28.835Z,99503.28
2022-10-20T13:00:57.628Z,99510.63
2022-10-20T13:03:38.614Z,99512.91
2022-10-20T13:06:23.506Z,99508.28
2022-10-20T13:09:06.128Z,99505.28
2022-10-20T13:11:35.674Z,99502.69
2022-10-20T13:14:36.887Z,99494.13
2022-10-20T13:17:19.000Z,99511.53
2022-10-20T13:19:51.245Z,99508.69
2022-10-20T13:22:44.467Z,99501.56
2022-10-20T13:25:53.354Z,99512.38
2022-10-20T13:28:28.586Z,99500.69
2022-10-20T13:31:07.375Z,99488.56
2022-10-20T13:34:04.394Z,99492.16
2022-10-20T13:37:09.980Z,99487.88
2022-10-20T13:39:48.737Z,99487.06
2022-10-20T13:42:15.247Z,99478.66
2022-10-20T13:45:03.204Z,99490.19
2022-10-20T13:47:47.130Z,99474.63
2022-10-20T13:52:49.663Z,99456.72
2022-10-20T13:55:20.366Z,99447.13
2022-10-20T13:58:07.005Z,99457.56
2022-10-20T14:00:36.095Z,99460.25
2022-10-20T14:03:15.117Z,99472.41
2022-10-20T14:05:41.672Z,99474.41
2022-10-20T14:08:10.492Z,99463.13
2022-10-20T14:10:48.292Z,99462.72
2022-10-20T14:13:18.531Z,99457.00
2022-10-20T14:15:48.745Z,99460.91
2022-10-20T14:18:23.207Z,99450.94
2022-10-20T14:21:17.898Z,99456.13
2022-10-20T14:23:46.302Z,99460.34
2022-10-20T14:26:17.161Z,99452.25
2022-10-20T14:28:45.123Z,99453.09
2022-10-20T14:31:13.177Z,99455.28
2022-10-20T14:33:47.896Z,99453.56
2022-10-20T14:36:20.738Z,99453.22
2022-10-20T14:38:50.273Z,99445.75
2022-10-20T14:41:37.183Z,99448.13
2022-10-20T14:44:10.712Z,99440.84
2022-10-20T14:46:45.130Z,99426.81
2022-10-20T14:49:16.367Z,99423.28
2022-10-20T14:51:53.826Z,99431.38
2022-10-20T14:54:20.554Z,99425.06
2022-10-20T14:57:12.026Z,99412.72
2022-10-20T14:59:59.127Z,99416.31
2022-10-20T15:02:28.706Z,99407.19
2022-10-20T15:04:55.294Z,99403.78
2022-10-20T15:07:23.477Z,99407.06
2022-10-20T15:09:51.592Z,99413.28
2022-10-20T15:12:20.931Z,99406.47
2022-10-20T15:14:51.829Z,99408.06
2022-10-20T15:17:40.462Z,99406.63
2022-10-20T15:20:34.621Z,99409.97
2022-10-20T15:23:08.696Z,99412.66
2022-10-20T15:25:50.334Z,99400.00
2022-10-20T15:28:36.021Z,99409.84
2022-10-20T15:31:14.837Z,99407.56
2022-10-20T15:33:42.462Z,99413.47
2022-10-20T15:36:15.562Z,99401.28
2022-10-20T15:38:43.304Z,99392.88
2022-10-20T15:41:15.063Z,99395.59
2022-10-20T15:43:41.866Z,99385.03
2022-10-20T15:46:11.365Z,99388.22
2022-10-20T15:48:38.156Z,99379.81
2022-10-20T15:51:05.496Z,99371.53
2022-10-20T15:53:32.148Z,99375.44
2022-10-20T15:55:58.677Z,99380.84
2022-10-20T15:58:25.319Z,99381.44
2022-10-20T16:00:51.908Z,99390.59
2022-10-20T16:03:19.103Z,99384.41
2022-10-20T16:05:47.018Z,99379.88
2022-10-20T16:10:41.327Z,99369.78
2022-10-20T16:13:09.113Z,99358.81
2022-10-20T16:15:35.735Z,99352.50
2022-10-20T16:18:04.602Z,99353.38
2022-10-20T16:20:33.866Z,99351.63
2022-10-20T16:23:00.510Z,99362.25
2022-10-20T16:25:27.193Z,99360.19
2022-10-20T16:27:53.840Z,99357.69
2022-10-20T16:30:20.364Z,99377.75
2022-10-20T16:32:46.995Z,99382.00
2022-10-20T16:35:13.573Z,99377.31
2022-10-20T16:37:40.566Z,99371.78
2022-10-20T16:40:07.637Z,99378.69
2022-10-20T16:42:34.301Z,99372.13
2022-10-20T16:45:00.919Z,99370.13
2022-10-20T16:47:27.683Z,99366.25
2022-10-20T16:49:54.429Z,99354.66
2022-10-20T16:52:21.888Z,99359.94
2022-10-20T16:54:48.429Z,99351.53
2022-10-20T16:57:15.559Z,99350.25
2022-10-20T16:59:43.242Z,99352.94
2022-10-20T17:02:12.434Z,99358.97
2022-10-20T17:04:39.121Z,99352.53
2022-10-20T17:07:05.758Z,99342.81
2022-10-20T17:09:32.314Z,99343.47
2022-10-20T17:11:58.887Z,99330.13
2022-10-20T17:14:25.485Z,99328.97
2022-10-20T17:16:52.091Z,99328.44
2022-10-20T17:19:18.699Z,99330.22
2022-10-20T17:21:46.179Z,99328.94
2022-10-20T17:24:13.655Z,99332.53
2022-10-20T17:26:41.480Z,99336.06
2022-10-20T17:29:09.469Z,99337.69
2022-10-20T17:31:37.472Z,99327.69
2022-10-20T17:34:04.742Z,99340.75
2022-10-20T17:36:31.621Z,99333.97
2022-10-20T17:39:03.954Z,99327.75
2022-10-20T17:41:30.620Z,99330.13
2022-10-20T17:43:59.650Z,99340.19
2022-10-20T17:46:26.263Z,99339.06
2022-10-20T17:48:52.734Z,99330.00
2022-10-20T17:51:22.273Z,99330.88
2022-10-20T17:53:50.860Z,99330.59
2022-10-20T17:56:23.203Z,99334.91
2022-10-20T17:58:51.476Z,99335.84
2022-10-20T18:01:31.101Z,99326.44
2022-10-20T18:04:01.452Z,99316.97
2022-10-20T18:06:33.784Z,99312.13
2022-10-20T18:09:04.914Z,99296.13
2022-10-20T18:11:33.243Z,99299.78
2022-10-20T18:14:00.701Z,99294.81
2022-10-20T18:16:29.628Z,99287.19
2022-10-20T18:21:24.992Z,99275.66
2022-10-20T18:24:03.443Z,99266.91
2022-10-20T18:26:32.148Z,99274.19
2022-10-20T18:29:00.285Z,99264.88
2022-10-20T18:31:30.653Z,99256.22
2022-10-20T18:34:04.058Z,99258.34
2022-10-20T18:36:33.551Z,99254.44
2022-10-20T18:39:00.589Z,99252.16
2022-10-20T18:41:29.830Z,99248.06
2022-10-20T18:43:58.975Z,99242.69
2022-10-20T18:46:27.154Z,99236.63
2022-10-20T18:48:54.568Z,99233.69
2022-10-20T18:51:21.519Z,99231.69
2022-10-20T18:53:52.902Z,99229.53
2022-10-20T18:56:21.330Z,99229.69
2022-10-20T18:58:51.612Z,99221.34
2022-10-20T19:01:20.027Z,99214.47
2022-10-20T19:03:49.512Z,99225.53
2022-10-20T19:06:25.180Z,99225.25
2022-10-20T19:08:57.799Z,99225.25
2022-10-20T19:11:27.476Z,99223.22
2022-10-20T19:13:54.757Z,99224.69
2022-10-20T19:16:24.301Z,99218.41
2022-10-20T19:18:54.858Z,99218.47
2022-10-20T19:21:22.668Z,99224.91
2022-10-20T19:23:51.951Z,99215.47
2022-10-20T19:26:38.501Z,99221.00
2022-10-20T19:29:11.830Z,99206.25
2022-10-20T19:31:48.103Z,99208.78
2022-10-20T19:34:19.390Z,99210.47
2022-10-20T19:36:46.809Z,99205.06
2022-10-20T19:39:19.383Z,99202.75
2022-10-20T19:41:46.419Z,99198.34
2022-10-20T19:44:15.259Z,99178.44
2022-10-20T19:46:43.466Z,99187.34
2022-10-20T19:49:10.673Z,99182.50
2022-10-20T19:51:37.430Z,99198.09
2022-10-20T19:54:05.164Z,99186.03
2022-10-20T19:56:32.523Z,99193.25
2022-10-20T19:59:00.526Z,99182.66
2022-10-20T20:01:27.241Z,99180.28
2022-10-20T20:03:53.826Z,99184.81
2022-10-20T20:06:21.707Z,99196.56
2022-10-20T20:08:53.740Z,99193.88
2022-10-20T20:11:23.953Z,99195.78
2022-10-20T20:13:52.344Z,99205.41
2022-10-20T20:16:19.053Z,99211.41
2022-10-20T20:18:45.850Z,99200.78
2022-10-20T20:21:13.159Z,99204.25
2022-10-20T20:23:54.671Z,99204.25
2022-10-20T20:26:25.977Z,99198.63
2022-10-20T20:28:54.527Z,99195.47
2022-10-20T20:31:21.793Z,99190.72
2022-10-20T20:33:49.118Z,99186.88
2022-10-20T20:36:16.118Z,99183.44
2022-10-20T20:38:42.762Z,99188.72
2022-10-20T20:41:13.189Z,99187.34
2022-10-20T20:43:40.927Z,99189.19
2022-10-20T20:46:18.909Z,99188.22
2022-10-20T20:48:45.579Z,99186.34
2022-10-20T20:51:13.150Z,99174.25
2022-10-20T20:53:40.676Z,99176.81
2022-10-20T20:56:09.941Z,99167.09
2022-10-20T20:58:37.402Z,99167.78
2022-10-20T21:01:07.907Z,99163.47
2022-10-20T21:03:36.222Z,99163.31
2022-10-20T21:06:08.113Z,99158.56
2022-10-20T21:08:37.008Z,99166.19
2022-10-20T21:11:14.889Z,99174.38
2022-10-20T21:13:42.862Z,99168.69
2022-10-20T21:16:14.499Z,99174.72
2022-10-20T21:18:43.555Z,99158.88
2022-10-20T21:21:15.967Z,99175.94
2022-10-20T21:23:43.009Z,99194.94
2022-10-20T21:26:11.510Z,99214.50
2022-10-20T21:28:38.389Z,99219.03
2022-10-20T21:31:06.445Z,99220.88
2022-10-20T21:33:34.103Z,99208.25
2022-10-20T21:36:07.222Z,99206.19
2022-10-20T21:38:36.367Z,99219.19
2022-10-20T21:41:08.162Z,99226.81
2022-10-20T21:43:36.395Z,99229.31
2022-10-20T21:46:16.167Z,99244.38
2022-10-20T21:48:43.802Z,99245.56
2022-10-20T21:51:11.706Z,99249.56
2022-10-20T21:53:38.388Z,99233.41
2022-10-20T21:56:05.914Z,99239.53
2022-10-20T21:58:32.702Z,99226.38
2022-10-20T22:00:59.683Z,99248.25
2022-10-20T22:03:26.419Z,99250.13
2022-10-20T22:05:53.392Z,99260.09
2022-10-20T22:08:20.119Z,99251.50
2022-10-20T22:10:46.740Z,99252.53
2022-10-20T22:13:13.371Z,99244.91
2022-10-20T22:15:41.424Z,99247.59
2022-10-20T22:18:08.529Z,99240.16
2022-10-20T22:20:37.298Z,99240.88
2022-10-20T22:23:08.256Z,99246.56
2022-10-20T22:25:38.633Z,99236.75
2022-10-20T22:28:06.039Z,99231.06
2022-10-20T22:30:34.016Z,99230.88
2022-10-20T22:33:01.225Z,99218.97
2022-10-20T22:35:28.387Z,99225.78
2022-10-20T22:37:55.023Z,99226.81
2022-10-20T22:40:21.665Z,99219.41
2022-10-20T22:42:48.287Z,99223.31
2022-10-20T22:45:14.916Z,99225.53
2022-10-20T22:47:41.450Z,99231.28
2022-10-20T22:50:08.209Z,99222.84
2022-10-20T22:52:35.025Z,99231.59
2022-10-20T22:55:01.809Z,99224.53
2022-10-20T22:57:28.330Z,99224.69
2022-10-20T22:59:54.937Z,99210.22
2022-10-20T23:02:21.542Z,99211.59
2022-10-20T23:04:48.061Z,99205.03
2022-10-20T23:07:14.536Z,99209.56
2022-10-20T23:09:41.136Z,99200.25
2022-10-20T23:12:07.720Z,99198.63
2022-10-20T23:14:34.349Z,99195.34
2022-10-20T23:17:00.998Z,99182.66
2022-10-20T23:19:27.520Z,99185.63
2022-10-20T23:21:54.094Z,99188.31
2022-10-20T23:24:20.658Z,99188.84
2022-10-20T23:26:47.198Z,99182.47
2022-10-20T23:29:13.750Z,99190.34
2022-10-20T23:31:40.344Z,99177.88
2022-10-20T23:34:06.830Z,99174.13
2022-10-20T23:36:36.732Z,99179.56
2022-10-20T23:39:05.628Z,99167.31
2022-10-20T23:41:32.211Z,99176.69
2022-10-20T23:43:58.811Z,99183.63
2022-10-20T23:46:25.492Z,99186.47
2022-10-20T23:48:51.988Z,99189.88
2022-10-20T23:51:18.556Z,99192.22
2022-10-20T23:53:45.091Z,99182.34
2022-10-20T23:56:11.690Z,99185.59
2022-10-20T23:58:38.339Z,99180.88
